TimeCST,TemperatureF,Dew PointF,Humidity,Sea Level PressureIn,VisibilityMPH,Wind Direction,Wind SpeedMPH,Gust SpeedMPH,PrecipitationIn,Events,Conditions,WindDirDegrees,DateUTC
12:15 AM,19.4,16.7,89,30.12,2.0,SE,10.4,-,N/A,Snow,Light Snow,130,2013-02-21 06:15:00
12:35 AM,19.2,16.5,89,30.12,2.5,ESE,11.5,-,N/A,Snow,Light Snow,120,2013-02-21 06:35:00
12:55 AM,19.4,16.5,89,30.11,5.0,ESE,11.5,-,N/A,Snow,Light Snow,120,2013-02-21 06:55:00
1:15 AM,19.4,16.2,87,30.11,10.0,SE,11.5,-,N/A,Snow,Light Snow,130,2013-02-21 07:15:00
1:35 AM,19.4,14.9,83,30.11,10.0,SE,10.4,-,N/A,,Overcast,130,2013-02-21 07:35:00
1:55 AM,19.4,13.8,79,30.11,10.0,SE,9.2,-,N/A,,Overcast,130,2013-02-21 07:55:00
2:15 AM,19.4,13.6,78,30.09,10.0,ESE,8.1,-,N/A,,Overcast,120,2013-02-21 08:15:00
2:35 AM,19.4,13.1,76,30.08,10.0,ESE,5.8,-,N/A,,Overcast,110,2013-02-21 08:35:00
2:55 AM,19.9,12.7,74,30.06,10.0,East,8.1,-,N/A,,Overcast,90,2013-02-21 08:55:00
3:15 AM,20.1,12.6,73,30.07,10.0,ESE,9.2,-,N/A,,Overcast,120,2013-02-21 09:15:00
3:35 AM,19.9,11.8,71,30.07,10.0,SE,9.2,-,N/A,,Overcast,130,2013-02-21 09:35:00
3:55 AM,19.4,10.6,69,30.04,10.0,ESE,8.1,-,N/A,,Overcast,110,2013-02-21 09:55:00
4:15 AM,19.9,10.4,67,30.06,10.0,ESE,9.2,-,N/A,,Overcast,120,2013-02-21 10:15:00
4:35 AM,20.1,10.2,66,30.05,10.0,East,6.9,-,N/A,,Overcast,100,2013-02-21 10:35:00
4:55 AM,19.8,11.8,71,30.04,10.0,East,6.9,-,N/A,,Overcast,90,2013-02-21 10:55:00
5:15 AM,19.4,11.5,71,30.06,5.0,ESE,8.1,-,N/A,Snow,Light Snow,110,2013-02-21 11:15:00
5:35 AM,19.4,14.0,80,30.07,1.8,ESE,10.4,-,N/A,Snow,Light Snow,110,2013-02-21 11:35:00
5:55 AM,17.6,14.2,86,30.06,1.5,East,8.1,-,N/A,Snow,Light Snow,90,2013-02-21 11:55:00
6:15 AM,17.6,14.5,88,30.05,2.0,ENE,9.2,-,N/A,Snow,Light Snow,70,2013-02-21 12:15:00
6:35 AM,17.4,14.5,88,30.05,2.0,East,10.4,-,N/A,Snow,Light Snow,90,2013-02-21 12:35:00
6:55 AM,17.2,14.5,89,30.05,1.5,ENE,8.1,-,N/A,Snow,Light Snow,70,2013-02-21 12:55:00
7:15 AM,17.4,14.2,87,30.05,4.0,ENE,8.1,-,N/A,Snow,Light Snow,70,2013-02-21 13:15:00
7:35 AM,17.6,13.6,84,30.06,5.0,East,6.9,-,N/A,Snow,Light Snow,80,2013-02-21 13:35:00
7:55 AM,18.0,14.0,84,30.06,7.0,East,5.8,-,N/A,,Overcast,80,2013-02-21 13:55:00
8:15 AM,18.1,13.5,82,30.07,10.0,East,6.9,-,N/A,Snow,Light Snow,80,2013-02-21 14:15:00
8:35 AM,18.5,12.9,79,30.08,2.5,East,6.9,-,N/A,Snow,Light Snow,90,2013-02-21 14:35:00
8:55 AM,18.3,13.3,81,30.08,2.0,East,10.4,-,N/A,Snow,Light Snow,90,2013-02-21 14:55:00
9:15 AM,18.0,14.0,84,30.09,1.0,East,8.1,-,N/A,Snow,Light Snow,80,2013-02-21 15:15:00
9:35 AM,18.1,14.5,86,30.08,0.8,East,10.4,-,N/A,Snow,Light Snow,80,2013-02-21 15:35:00
9:55 AM,18.1,14.5,86,30.08,1.2,East,10.4,-,N/A,Snow,Light Snow,80,2013-02-21 15:55:00
10:15 AM,18.5,14.9,86,30.08,1.2,ENE,8.1,-,N/A,Snow,Light Snow,70,2013-02-21 16:15:00
10:35 AM,18.5,14.9,86,30.08,1.5,ENE,10.4,-,N/A,Snow,Light Snow,70,2013-02-21 16:35:00
10:55 AM,18.5,14.9,86,30.07,1.0,NE,10.4,-,N/A,Snow,Light Snow,50,2013-02-21 16:55:00
11:15 AM,18.5,15.1,86,30.06,2.0,NE,9.2,-,N/A,Snow,Light Snow,50,2013-02-21 17:15:00
11:35 AM,19.0,14.9,84,30.05,4.0,NE,10.4,-,N/A,Snow,Light Snow,50,2013-02-21 17:35:00
11:55 AM,19.4,14.4,81,30.04,10.0,NE,11.5,-,N/A,,Overcast,40,2013-02-21 17:55:00
12:15 PM,20.1,14.2,78,30.03,10.0,NNE,10.4,-,N/A,,Overcast,30,2013-02-21 18:15:00
12:35 PM,20.7,13.1,73,30.01,10.0,NNE,11.5,-,N/A,,Overcast,30,2013-02-21 18:35:00
12:55 PM,20.5,13.1,73,30.00,10.0,NE,11.5,-,N/A,,Overcast,40,2013-02-21 18:55:00
1:15 PM,20.3,13.1,74,29.98,10.0,NNE,15.0,-,N/A,,Overcast,30,2013-02-21 19:15:00
1:35 PM,20.3,14.0,77,29.98,10.0,NE,16.1,20.7,N/A,,Overcast,40,2013-02-21 19:35:00
1:55 PM,19.6,14.0,79,29.97,7.0,NE,16.1,-,N/A,,Overcast,40,2013-02-21 19:55:00
2:15 PM,19.4,13.3,77,29.98,7.0,NE,10.4,-,N/A,,Overcast,40,2013-02-21 20:15:00
2:35 PM,19.0,14.2,81,29.97,1.0,NE,13.8,-,N/A,Snow,Light Snow,50,2013-02-21 20:35:00
2:55 PM,18.7,15.1,86,29.97,0.5,NE,13.8,-,N/A,Snow,Light Snow,50,2013-02-21 20:55:00
3:15 PM,18.5,15.6,89,29.96,0.8,NE,11.5,-,N/A,Snow,Light Snow,40,2013-02-21 21:15:00
3:35 PM,18.5,15.6,89,29.96,1.5,NE,13.8,-,N/A,Snow,Light Snow,40,2013-02-21 21:35:00
3:55 PM,18.7,15.8,89,29.96,1.5,NE,13.8,-,N/A,Snow,Light Snow,40,2013-02-21 21:55:00
4:15 PM,18.7,16.0,89,29.97,0.8,NE,13.8,-,N/A,Snow,Light Snow,40,2013-02-21 22:15:00
4:35 PM,18.9,16.2,89,29.97,1.2,NE,13.8,17.3,N/A,Snow,Light Snow,40,2013-02-21 22:35:00
4:55 PM,18.5,16.0,90,29.97,1.5,NNE,11.5,-,N/A,Snow,Light Snow,30,2013-02-21 22:55:00
5:15 PM,18.7,16.2,90,29.96,1.2,NNE,12.7,-,N/A,Snow,Light Snow,30,2013-02-21 23:15:00
5:35 PM,18.9,16.3,90,29.96,1.5,NNE,11.5,-,N/A,Snow,Light Snow,20,2013-02-21 23:35:00
5:55 PM,19.0,16.5,90,29.95,1.5,NNE,13.8,-,N/A,Snow,Light Snow,30,2013-02-21 23:55:00
6:15 PM,19.0,16.3,89,29.95,3.0,NNE,12.7,-,N/A,Snow,Light Snow,30,2013-02-22 00:15:00
6:35 PM,19.0,16.2,89,29.95,7.0,NNE,13.8,-,N/A,,Overcast,30,2013-02-22 00:35:00
6:55 PM,19.0,16.3,89,29.95,3.0,NNE,11.5,-,N/A,Snow,Light Snow,20,2013-02-22 00:55:00
7:15 PM,19.0,16.3,89,29.95,3.0,NNE,13.8,-,N/A,Snow,Light Snow,20,2013-02-22 01:15:00
7:35 PM,18.9,16.3,90,29.95,1.8,NNE,13.8,-,N/A,Snow,Light Snow,20,2013-02-22 01:35:00
7:55 PM,18.9,16.3,90,29.95,2.5,North,12.7,-,N/A,Snow,Light Snow,10,2013-02-22 01:55:00
8:15 PM,18.9,16.3,90,29.95,3.0,NNE,12.7,-,N/A,Snow,Light Snow,20,2013-02-22 02:15:00
8:35 PM,18.7,16.0,89,29.96,3.0,NNE,13.8,-,N/A,Snow,Light Snow,20,2013-02-22 02:35:00
8:55 PM,18.7,16.0,89,29.96,3.0,NNE,10.4,-,N/A,Snow,Light Snow,20,2013-02-22 02:55:00
9:15 PM,18.5,15.8,89,29.96,2.5,NNE,10.4,-,N/A,Snow,Light Snow,20,2013-02-22 03:15:00
9:35 PM,18.5,15.8,89,29.96,2.0,NNE,12.7,-,N/A,Snow,Light Snow,20,2013-02-22 03:35:00
9:55 PM,18.5,15.8,89,29.95,1.2,NNE,12.7,18.4,N/A,Snow,Light Snow,20,2013-02-22 03:55:00
10:15 PM,18.5,15.8,89,29.95,1.5,North,10.4,-,N/A,Snow,Light Snow,10,2013-02-22 04:15:00
10:35 PM,18.1,15.3,88,29.95,1.5,North,13.8,-,N/A,Snow,Light Snow,10,2013-02-22 04:35:00
10:55 PM,17.6,14.9,89,29.93,2.0,North,11.5,-,N/A,Snow,Light Snow,10,2013-02-22 04:55:00
11:15 PM,16.7,13.8,88,29.93,2.5,NNE,15.0,-,N/A,Snow,Light Snow,20,2013-02-22 05:15:00
11:35 PM,16.5,13.6,88,29.93,2.5,North,13.8,-,N/A,Snow,Light Snow,10,2013-02-22 05:35:00
11:55 PM,15.8,14.0,93,29.93,4.0,North,9.2,-,N/A,Snow,Light Snow,10,2013-02-22 05:55:00